Thunder radar more information blitzortung!


Löydät sääaseman tiedot myös:

European Weather Network

Finland Weather Exchange

Weather Underground

AWEKAS



Weather Underground säähistoriasivu

Päivittäin yhteenveto Huhtikuu 7, 2017 Yksiköt:  Englantilaiset    Metriset   Molemmat
« Edellinen Päivä
Seuraava Päivä »
Päivittäin Viikoittain Kuukausittain Vuosittain Mukautettu
  Korkea: Matala: Keskiarvo:
Lämpötila: TemperatureC °F -2.4 °F 1.4 °F
Kastepiste: DewpointC °F -6.1 °F -1.3 °F
Kosteus: Humidity % 59 % 82 %
Tuulen nopeus: WindSpeedKMH mph 0.0 mph 1.4 mph
Tuulenpuuska: WindSpeedGustKMH mph - -
Tuuli:- - SW
Ilmanpaine: PressurehPa in 1002.6 in -
Sade: 0.0 in    
Historical Graphs
 
 
Taulukkotiedot Huhtikuu 7, 2017
Aika Lämpötila Kastepiste Ilmanpaine Tuuli Tuulen nopeus Tuulenpuuska Kosteus Sademäärä (tunneittain)
TemperatureC °F DewpointC °F PressurehPa in Calm     Humidity % HourlyPrecipMM in
00:00 1.7 °F 0.0 °F 1002.6 in SW 3.2 mph 9.7 mph 89 % 0.0 in
00:15 1.4 °F 0.0 °F 1002.6 in SSW 4.8 mph 9.7 mph 90 % 0.0 in
00:30 1.2 °F -0.2 °F 1002.6 in SSW 3.2 mph 8.0 mph 90 % 0.0 in
00:45 1.0 °F -0.3 °F 1002.6 in SSW 3.2 mph 9.7 mph 91 % 0.0 in
01:00 0.8 °F -0.5 °F 1002.6 in SW 1.6 mph 9.7 mph 91 % 0.0 in
01:15 0.6 °F -0.5 °F 1002.6 in SW 1.6 mph 8.0 mph 92 % 0.0 in
01:30 0.3 °F -0.8 °F 1002.6 in Calm   4.8 mph 92 % 0.0 in
01:45 0.3 °F -0.7 °F 1002.6 in SW 1.6 mph 6.4 mph 93 % 0.0 in
02:00 0.2 °F -0.8 °F 1002.6 in SSW 1.6 mph 6.4 mph 93 % 0.0 in
02:15 0.2 °F -0.8 °F 1002.6 in SSW 3.2 mph 9.7 mph 93 % 0.0 in
02:30 0.1 °F -0.9 °F 1002.6 in SSW 1.6 mph 6.4 mph 93 % 0.0 in
02:45 -0.3 °F -1.3 °F 1002.6 in Calm     93 % 0.0 in
03:00 -0.4 °F -1.3 °F 1002.6 in SSW 1.6 mph 4.8 mph 94 % 0.0 in
03:15 -0.2 °F -1.1 °F 1002.6 in SSW 3.2 mph 8.0 mph 94 % 0.0 in
03:30 -0.2 °F -1.1 °F 1002.6 in SSW 1.6 mph 6.4 mph 94 % 0.0 in
03:45 -0.2 °F -1.0 °F 1002.6 in SSW 1.6 mph 4.8 mph 94 % 0.0 in
04:00 -0.1 °F -0.8 °F 1002.6 in SSW 1.6 mph 4.8 mph 95 % 0.0 in
04:15 0.0 °F -0.7 °F 1002.6 in SSW 1.6 mph 4.8 mph 95 % 0.0 in
04:30 0.1 °F -0.6 °F 1002.6 in Calm   3.2 mph 95 % 0.0 in
04:45 0.0 °F -0.9 °F 1002.6 in Calm     94 % 0.0 in
05:00 -0.1 °F -0.9 °F 1002.6 in SSW 1.6 mph 4.8 mph 94 % 0.0 in
05:15 -0.1 °F -0.8 °F 1002.6 in SSW 1.6 mph 4.8 mph 95 % 0.0 in
05:30 -0.1 °F -0.8 °F 1002.6 in Calm   1.6 mph 95 % 0.0 in
06:00 0.2 °F -0.5 °F 1002.6 in Calm   1.6 mph 95 % 0.0 in
06:15 0.2 °F -0.5 °F 1002.6 in Calm   3.2 mph 95 % 0.0 in
06:30 0.3 °F -0.4 °F 1002.6 in Calm     95 % 0.0 in
06:45 0.3 °F -0.4 °F 1002.6 in Calm     95 % 0.0 in
07:00 0.2 °F -0.5 °F 1002.6 in Calm     95 % 0.0 in
07:15 0.2 °F -0.5 °F 1002.9 in Calm     95 % 0.0 in
07:30 0.1 °F -0.6 °F 1002.9 in Calm     95 % 0.0 in
07:45 0.1 °F -0.6 °F 1002.9 in Calm     95 % 0.0 in
08:00 0.1 °F -0.6 °F 1003.3 in Calm     95 % 0.0 in
08:15 0.2 °F -0.5 °F 1003.3 in Calm     95 % 0.0 in
08:30 0.5 °F -0.1 °F 1003.3 in Calm     96 % 0.0 in
08:45 0.8 °F 0.3 °F 1003.6 in Calm   4.8 mph 96 % 0.0 in
09:00 1.2 °F 0.7 °F 1003.6 in Calm   4.8 mph 96 % 0.0 in
09:15 1.5 °F 0.8 °F 1003.6 in Calm   1.6 mph 95 % 0.0 in
09:30 1.8 °F 0.8 °F 1003.6 in Calm   3.2 mph 93 % 0.0 in
09:45 2.0 °F 0.7 °F 1003.6 in NW 1.6 mph 6.4 mph 91 % 0.0 in
10:00 2.2 °F 0.7 °F 1003.9 in NW 1.6 mph 4.8 mph 90 % 0.0 in
10:15 2.2 °F 0.6 °F 1003.9 in NW 1.6 mph 8.0 mph 89 % 0.0 in
10:30 2.7 °F 0.8 °F 1004.3 in Calm   1.6 mph 87 % 0.0 in
10:45 3.0 °F 0.9 °F 1004.3 in Calm     86 % 0.0 in
11:00 3.0 °F 0.9 °F 1004.6 in Calm   3.2 mph 86 % 0.0 in
11:15 2.8 °F 0.7 °F 1005.0 in NNW 1.6 mph 6.4 mph 86 % 0.0 in
11:30 2.7 °F 0.6 °F 1005.0 in NE 1.6 mph 4.8 mph 86 % 0.0 in
11:45 2.7 °F 0.6 °F 1005.0 in Calm   6.4 mph 86 % 0.0 in
12:00 2.9 °F 0.8 °F 1005.3 in Calm   6.4 mph 86 % 0.0 in
12:15 2.8 °F 0.7 °F 1005.3 in Calm   4.8 mph 86 % 0.0 in
12:30 2.7 °F 0.7 °F 1005.3 in Calm   4.8 mph 87 % 0.0 in
12:45 2.7 °F 0.9 °F 1005.6 in Calm   3.2 mph 88 % 0.0 in
13:00 2.9 °F 0.8 °F 1005.6 in Calm   6.4 mph 86 % 0.0 in
13:15 2.9 °F 0.7 °F 1005.6 in Calm   6.4 mph 85 % 0.0 in
13:30 2.8 °F 0.4 °F 1005.6 in North 1.6 mph 4.8 mph 84 % 0.0 in
13:45 3.0 °F 0.4 °F 1005.6 in NNW 1.6 mph 6.4 mph 83 % 0.0 in
14:00 2.9 °F 0.5 °F 1006.0 in Calm   6.4 mph 84 % 0.0 in
14:15 2.9 °F 0.6 °F 1006.0 in NNW 1.6 mph 9.7 mph 85 % 0.0 in
14:30 2.8 °F 0.7 °F 1006.3 in North 1.6 mph 8.0 mph 86 % 0.0 in
14:45 3.1 °F 0.5 °F 1006.3 in NW 4.8 mph 11.3 mph 83 % 0.0 in
15:00 3.6 °F 0.3 °F 1006.3 in North 3.2 mph 9.7 mph 79 % 0.0 in
15:15 3.8 °F -0.4 °F 1006.3 in North 3.2 mph 12.9 mph 74 % 0.0 in
15:30 3.6 °F 0.4 °F 1006.7 in NW 6.4 mph 22.5 mph 80 % 0.0 in
15:45 3.7 °F -0.1 °F 1006.7 in NNW 3.2 mph 9.7 mph 76 % 0.0 in
16:00 3.6 °F 0.0 °F 1007.0 in NNW 6.4 mph 19.3 mph 77 % 0.0 in
16:15 3.4 °F 0.1 °F 1007.0 in North 3.2 mph 11.3 mph 79 % 0.0 in
16:30 3.5 °F -0.3 °F 1007.0 in NNW 6.4 mph 12.9 mph 76 % 0.0 in
16:45 3.7 °F -0.5 °F 1007.3 in NNW 4.8 mph 14.5 mph 74 % 0.0 in
17:00 3.9 °F -1.5 °F 1007.3 in North 4.8 mph 12.9 mph 68 % 0.0 in
17:15 4.2 °F -1.2 °F 1007.3 in NNW 4.8 mph 11.3 mph 68 % 0.0 in
17:30 4.3 °F -1.7 °F 1007.7 in North 3.2 mph 12.9 mph 65 % 0.0 in
17:45 3.8 °F -3.0 °F 1007.7 in North 4.8 mph 12.9 mph 61 % 0.0 in
18:00 3.5 °F -3.1 °F 1008.0 in North 4.8 mph 9.7 mph 62 % 0.0 in
18:15 3.3 °F -2.7 °F 1008.0 in NNE 3.2 mph 8.0 mph 65 % 0.0 in
18:30 3.1 °F -4.0 °F 1008.4 in North 3.2 mph 14.5 mph 60 % 0.0 in
18:45 2.8 °F -4.0 °F 1008.4 in North 1.6 mph 6.4 mph 61 % 0.0 in
19:00 2.7 °F -4.6 °F 1008.7 in North 1.6 mph 8.0 mph 59 % 0.0 in
19:15 2.6 °F -4.7 °F 1008.7 in North 1.6 mph 6.4 mph 59 % 0.0 in
19:30 2.3 °F -4.3 °F 1009.0 in North 1.6 mph 8.0 mph 62 % 0.0 in
19:45 2.1 °F -4.3 °F 1009.0 in Calm   4.8 mph 63 % 0.0 in
20:00 2.0 °F -5.2 °F 1009.4 in NNW 1.6 mph 8.0 mph 59 % 0.0 in
20:15 1.8 °F -5.1 °F 1009.4 in North 1.6 mph 11.3 mph 60 % 0.0 in
20:30 1.4 °F -5.3 °F 1009.7 in Calm   1.6 mph 61 % 0.0 in
20:45 0.9 °F -4.7 °F 1009.7 in Calm   3.2 mph 66 % 0.0 in
21:00 0.4 °F -4.6 °F 1010.0 in Calm   3.2 mph 69 % 0.0 in
21:15 0.1 °F -4.8 °F 1010.4 in Calm   3.2 mph 70 % 0.0 in
21:30 -0.4 °F -5.0 °F 1010.4 in Calm   1.6 mph 71 % 0.0 in
21:45 -0.8 °F -5.3 °F 1010.4 in Calm     72 % 0.0 in
22:00 -1.1 °F -5.2 °F 1010.4 in Calm   4.8 mph 74 % 0.0 in
22:15 -1.3 °F -5.2 °F 1010.4 in Calm     75 % 0.0 in
22:30 -1.4 °F -5.5 °F 1010.7 in Calm   1.6 mph 74 % 0.0 in
22:45 -1.6 °F -5.6 °F 1010.7 in Calm     74 % 0.0 in
23:15 -2.1 °F -5.7 °F 1010.7 in Calm     76 % 0.0 in
23:30 -2.3 °F -5.8 °F 1010.7 in Calm     77 % 0.0 in
23:45 -2.4 °F -6.1 °F 1011.1 in Calm     76 % 0.0 in
Esan sääasema
Terveisin Weather Underground - 2.75 mb

Alkuperäinen skripti  Jim McMurry - jmcmurry@mwt.net Sovitettu myös templatelle  Wim van der Kuil - Leuven-Template.eu

Laitteet joita käytämme:

Sääasema
Davis VP2

Sääasemaohjelma
Cumulus

Sääaseman tietokone
Asus EeePC

Palveluntarjoaja
Suncomet

Davis VP2

Cumulus

Asus EeePC

Suncomet